Huang Shan, China
Current Conditions -  °F | °C
As of 12:00 AM on Wednesday 22 Oct 2014 (Local Time) from ZSNJ Reporting Station
Haze Haze  
Wind Chill: 61°   Ceiling: 1700
Heat Index: 61°   Visibility: 1.2mi
Dew Point: 59°   Wind: 7mph
Humidity: 94%   Direction: 340°NNW
Pressure: 30.18"   Gusts: NA
Location:  30.13°N, 118.15°E
Report Text: ZSNJ 211600Z 34003MPS 2000 BR BKN017 OVC046 16/15 Q1022 NOSIG
Loading
Personal Weather Stations






























Interactive Weather Map
Tropical Storm Tracking
New forecast layout! Learn more

10-Day Weather Forecast

Advertisements
Track Severe Weather on mobile